Terminal Aerodrome Forecast
Issued by NWS Charleston, WV

Current Version | Previous Version | Text Only | Print | Product List | Glossary Off
Versions: 1 2 3 4 5 6 7 8 9 10 11 12 13 14 15 16 17 18 19 20 21 22 23 24 25

188
FTUS41 KRLX 222356 CCA
TAFEKN
TAF COR
KEKN 222356Z 2300/2324 02004KT P6SM SCT010 SCT025 BKN070
     FM230200 04003KT P6SM BKN025
     FM230800 09003KT P6SM BKN015
     FM231300 11005KT P6SM BKN045
     FM232000 10006KT 6SM SHRA BKN035=

USA.gov is the U.S. government's official web portal to all federal, state and local government web resources and services.